createdAt,value
2023-01-07T00:01:15.627Z,100380.00
2023-01-07T00:03:44.262Z,100376.97
2023-01-07T00:06:15.587Z,100372.34
2023-01-07T00:08:45.460Z,100372.84
2023-01-07T00:11:16.326Z,100369.25
2023-01-07T00:13:44.740Z,100360.13
2023-01-07T00:16:15.036Z,100337.06
2023-01-07T00:18:43.930Z,100350.78
2023-01-07T00:21:15.153Z,100348.03
2023-01-07T00:23:44.027Z,100344.63
2023-01-07T00:26:13.987Z,100343.34
2023-01-07T00:28:43.191Z,100336.63
2023-01-07T00:31:13.151Z,100338.66
2023-01-07T00:33:49.337Z,100330.28
2023-01-07T00:36:19.153Z,100338.28
2023-01-07T00:38:47.019Z,100337.88
2023-01-07T00:41:14.994Z,100338.88
2023-01-07T00:43:42.598Z,100331.91
2023-01-07T00:46:13.306Z,100335.09
2023-01-07T00:48:41.057Z,100331.53
2023-01-07T00:51:09.945Z,100333.91
2023-01-07T00:53:38.924Z,100325.34
2023-01-07T00:56:06.948Z,100302.38
2023-01-07T00:58:34.825Z,100332.03
2023-01-07T01:01:03.491Z,100324.88
2023-01-07T01:03:32.816Z,100333.16
2023-01-07T01:06:03.140Z,100335.31
2023-01-07T01:08:31.078Z,100324.69
2023-01-07T01:11:05.217Z,100327.72
2023-01-07T01:13:32.989Z,100313.63
2023-01-07T01:16:01.022Z,100317.50
2023-01-07T01:18:28.776Z,100312.50
2023-01-07T01:20:56.950Z,100318.06
2023-01-07T01:23:24.570Z,100251.66
2023-01-07T01:25:52.200Z,100307.50
2023-01-07T01:28:21.227Z,100319.78
2023-01-07T01:30:55.654Z,100320.19
2023-01-07T01:33:25.256Z,100316.09
2023-01-07T01:35:53.057Z,100315.19
2023-01-07T01:38:20.830Z,100314.63
2023-01-07T01:40:48.498Z,100314.25
2023-01-07T01:43:31.093Z,100302.44
2023-01-07T01:46:00.784Z,100307.59
2023-01-07T01:48:28.874Z,100301.66
2023-01-07T01:50:56.809Z,100298.81
2023-01-07T01:53:27.614Z,100308.13
2023-01-07T01:55:58.624Z,100301.19
2023-01-07T01:58:35.452Z,100297.13
2023-01-07T02:01:04.035Z,100275.81
2023-01-07T02:03:36.099Z,100290.22
2023-01-07T02:06:04.717Z,100257.84
2023-01-07T02:08:32.876Z,100289.16
2023-01-07T02:11:15.385Z,100284.31
2023-01-07T02:13:58.041Z,100278.16
2023-01-07T02:16:35.811Z,100278.38
2023-01-07T02:19:22.913Z,100279.13
2023-01-07T02:21:59.259Z,100273.63
2023-01-07T02:25:13.527Z,100274.41
2023-01-07T02:28:15.341Z,100267.78
2023-01-07T02:31:05.723Z,100273.13
2023-01-07T02:33:52.659Z,100259.50
2023-01-07T02:36:31.796Z,100257.22
2023-01-07T02:39:19.725Z,100265.03
2023-01-07T02:41:53.486Z,100258.22
2023-01-07T02:44:30.679Z,100235.00
2023-01-07T02:47:04.209Z,100254.72
2023-01-07T02:49:33.409Z,100252.44
2023-01-07T02:52:17.364Z,100255.56
2023-01-07T02:54:47.572Z,100248.03
2023-01-07T02:57:49.100Z,100245.78
2023-01-07T03:00:31.016Z,100241.47
2023-01-07T03:03:14.438Z,100236.94
2023-01-07T03:05:52.114Z,100232.72
2023-01-07T03:08:36.215Z,100213.84
2023-01-07T03:11:05.835Z,100221.41
2023-01-07T03:13:39.085Z,100225.22
2023-01-07T03:16:11.081Z,100227.28
2023-01-07T03:18:42.704Z,100218.72
2023-01-07T03:21:15.758Z,100210.78
2023-01-07T03:23:50.259Z,100217.63
2023-01-07T03:26:20.760Z,100203.25
2023-01-07T03:28:51.012Z,100206.47
2023-01-07T03:31:21.112Z,100206.41
2023-01-07T03:33:54.165Z,100214.09
2023-01-07T03:36:29.034Z,100183.34
2023-01-07T03:38:57.975Z,100173.53
2023-01-07T03:41:45.357Z,100196.88
2023-01-07T03:44:14.325Z,100200.34
2023-01-07T03:46:42.124Z,100200.34
2023-01-07T03:49:09.890Z,100185.47
2023-01-07T03:51:39.529Z,100195.69
2023-01-07T03:54:07.354Z,100196.03
2023-01-07T03:56:35.182Z,100199.13
2023-01-07T03:59:02.860Z,100185.47
2023-01-07T04:01:31.506Z,100181.00
2023-01-07T04:04:00.729Z,100192.44
2023-01-07T04:06:30.430Z,100181.00
2023-01-07T04:08:59.490Z,100175.16
2023-01-07T04:11:27.863Z,100175.16
2023-01-07T04:13:57.084Z,100175.22
2023-01-07T04:16:24.896Z,100168.59
2023-01-07T04:18:52.655Z,100164.84
2023-01-07T04:21:21.313Z,100161.66
2023-01-07T04:23:49.116Z,100161.06
2023-01-07T04:26:18.153Z,100162.59
2023-01-07T04:28:46.162Z,100165.84
2023-01-07T04:31:13.958Z,100162.63
2023-01-07T04:33:41.853Z,100158.25
2023-01-07T04:36:09.937Z,100152.88
2023-01-07T04:38:38.290Z,100161.25
2023-01-07T04:41:06.191Z,100149.28
2023-01-07T04:43:36.305Z,100147.72
2023-01-07T04:46:07.061Z,100085.03
2023-01-07T04:48:34.918Z,100135.25
2023-01-07T04:51:03.414Z,100134.63
2023-01-07T04:53:32.086Z,100144.50
2023-01-07T04:56:00.385Z,100137.38
2023-01-07T04:58:28.198Z,100131.88
2023-01-07T05:00:59.415Z,100131.44
2023-01-07T05:03:28.365Z,100119.59
2023-01-07T05:05:56.355Z,100119.31
2023-01-07T05:08:24.221Z,100121.63
2023-01-07T05:10:52.672Z,100107.88
2023-01-07T05:13:22.406Z,100114.63
2023-01-07T05:15:50.948Z,100121.09
2023-01-07T05:18:21.631Z,100022.69
2023-01-07T05:20:49.478Z,100109.72
2023-01-07T05:23:17.279Z,100110.56
2023-01-07T05:25:45.643Z,100095.19
2023-01-07T05:28:13.400Z,100097.84
2023-01-07T05:30:42.031Z,100089.19
2023-01-07T05:33:09.812Z,100086.88
2023-01-07T05:35:38.954Z,100084.13
2023-01-07T05:38:07.690Z,100076.84
2023-01-07T05:40:35.421Z,100081.16
2023-01-07T05:43:03.249Z,100079.69
2023-01-07T05:45:31.973Z,100084.31
2023-01-07T05:47:59.835Z,100078.97
2023-01-07T05:50:27.654Z,100077.53
2023-01-07T05:52:56.680Z,100076.19
2023-01-07T05:55:24.338Z,100075.34
2023-01-07T05:57:51.958Z,100082.47
2023-01-07T06:00:19.792Z,100075.81
2023-01-07T06:02:47.409Z,100082.97
2023-01-07T06:05:15.123Z,100075.22
2023-01-07T06:07:42.770Z,100067.69
2023-01-07T06:10:12.059Z,100070.06
2023-01-07T06:12:39.744Z,100067.78
2023-01-07T06:15:08.654Z,100074.72
2023-01-07T06:17:36.396Z,100067.34
2023-01-07T06:20:04.152Z,100066.69
2023-01-07T06:22:31.812Z,100061.13
2023-01-07T06:24:59.477Z,100061.53
2023-01-07T06:27:28.542Z,100066.63
2023-01-07T06:29:56.113Z,100054.66
2023-01-07T06:32:23.776Z,100056.69
2023-01-07T06:34:51.409Z,100053.53
2023-01-07T06:37:19.064Z,100053.69
2023-01-07T06:39:46.673Z,100050.56
2023-01-07T06:42:14.541Z,100044.66
2023-01-07T06:44:43.897Z,100035.13
2023-01-07T06:47:11.514Z,100036.16
2023-01-07T06:49:39.189Z,100033.88
2023-01-07T06:52:06.984Z,100026.97
2023-01-07T06:54:34.761Z,100017.75
2023-01-07T06:57:02.379Z,100022.50
2023-01-07T06:59:30.030Z,99989.34
2023-01-07T07:01:59.284Z,100018.72
2023-01-07T07:04:26.939Z,100011.94
2023-01-07T07:06:54.629Z,100005.91
2023-01-07T07:09:22.285Z,100018.00
2023-01-07T07:11:49.998Z,100019.28
2023-01-07T07:14:17.613Z,100020.44
2023-01-07T07:16:45.316Z,100020.22
2023-01-07T07:19:14.479Z,100011.19
2023-01-07T07:21:42.131Z,100011.81
2023-01-07T07:24:10.879Z,100011.09
2023-01-07T07:26:38.584Z,100008.84
2023-01-07T07:29:06.344Z,100009.59
2023-01-07T07:31:34.134Z,100005.75
2023-01-07T07:34:02.127Z,100007.56
2023-01-07T07:36:31.207Z,100001.44
2023-01-07T07:38:59.032Z,100006.09
2023-01-07T07:41:26.744Z,99997.88
2023-01-07T07:43:54.427Z,99993.59
2023-01-07T07:46:22.196Z,99995.78
2023-01-07T07:48:49.956Z,99992.31
2023-01-07T07:51:17.784Z,99987.72
2023-01-07T07:53:46.822Z,99984.72
2023-01-07T07:56:14.664Z,99984.03
2023-01-07T07:58:43.299Z,99977.66
2023-01-07T08:01:11.556Z,99983.16
2023-01-07T08:03:39.304Z,99980.28
2023-01-07T08:06:07.953Z,99981.44
2023-01-07T08:08:35.991Z,99977.91
2023-01-07T08:11:05.285Z,99970.91
2023-01-07T08:13:33.084Z,99974.91
2023-01-07T08:16:00.770Z,99967.75
2023-01-07T08:18:28.419Z,99967.22
2023-01-07T08:20:56.221Z,99968.31
2023-01-07T08:23:24.031Z,99970.34
2023-01-07T08:25:51.724Z,99969.56
2023-01-07T08:28:20.739Z,99961.34
2023-01-07T08:30:48.444Z,99964.38
2023-01-07T08:33:16.141Z,99959.44
2023-01-07T08:35:43.787Z,99956.69
2023-01-07T08:38:11.489Z,99957.94
2023-01-07T08:40:39.516Z,99952.38
2023-01-07T08:43:08.735Z,99941.03
2023-01-07T08:45:37.898Z,99951.19
2023-01-07T08:48:06.204Z,99946.97
2023-01-07T08:50:34.883Z,99947.91
2023-01-07T08:53:02.595Z,99950.19
2023-01-07T08:55:30.586Z,99944.19
2023-01-07T08:57:58.466Z,99939.25
2023-01-07T09:00:26.586Z,99946.22
2023-01-07T09:02:55.608Z,99947.75
2023-01-07T09:05:24.474Z,99945.84
2023-01-07T09:07:53.497Z,99937.78
2023-01-07T09:10:21.383Z,99930.56
2023-01-07T09:12:49.212Z,99920.94
2023-01-07T09:15:16.994Z,99913.56
2023-01-07T09:17:44.765Z,99920.59
2023-01-07T09:20:13.778Z,99911.28
2023-01-07T09:22:41.507Z,99912.97
2023-01-07T09:25:10.238Z,99904.88
2023-01-07T09:27:38.095Z,99914.97
2023-01-07T09:30:08.006Z,99915.91
2023-01-07T09:32:35.983Z,99914.81
2023-01-07T09:35:04.021Z,99903.09
2023-01-07T09:37:33.019Z,99905.28
2023-01-07T09:40:01.399Z,99907.78
2023-01-07T09:42:38.716Z,99900.38
2023-01-07T09:45:15.013Z,99898.47
2023-01-07T09:47:46.286Z,99865.38
2023-01-07T09:50:23.293Z,99896.09
2023-01-07T09:52:58.151Z,99894.19
2023-01-07T09:55:32.372Z,99882.00
2023-01-07T09:58:00.464Z,99889.41
2023-01-07T10:00:29.226Z,99890.22
2023-01-07T10:03:11.757Z,99882.47
2023-01-07T10:05:49.891Z,99889.19
2023-01-07T10:08:32.641Z,99891.16
2023-01-07T10:11:09.993Z,99889.91
2023-01-07T10:13:49.107Z,99884.38
2023-01-07T10:16:24.832Z,99888.41
2023-01-07T10:19:00.299Z,99892.84
2023-01-07T10:21:40.126Z,99876.22
2023-01-07T10:24:18.452Z,99868.16
2023-01-07T10:26:50.838Z,99864.38
2023-01-07T10:29:22.346Z,99869.59
2023-01-07T10:31:52.246Z,99869.53
2023-01-07T10:34:33.058Z,99864.09
2023-01-07T10:37:04.214Z,99857.84
2023-01-07T10:39:46.471Z,99860.59
2023-01-07T10:42:20.917Z,99857.84
2023-01-07T10:45:18.572Z,99857.41
2023-01-07T10:48:01.896Z,99845.19
2023-01-07T10:50:52.070Z,99846.31
2023-01-07T10:53:29.014Z,99843.44
2023-01-07T10:56:05.501Z,99828.56
2023-01-07T10:58:39.076Z,99827.38
2023-01-07T11:01:07.894Z,99817.59
2023-01-07T11:03:37.616Z,99810.47
2023-01-07T11:06:09.905Z,99802.22
2023-01-07T11:08:39.816Z,99795.53
2023-01-07T11:11:15.672Z,99704.13
2023-01-07T11:13:51.460Z,99788.47
2023-01-07T11:16:23.268Z,99788.47
2023-01-07T11:18:58.468Z,99786.88
2023-01-07T11:21:43.593Z,99781.34
2023-01-07T11:24:33.199Z,99784.13
2023-01-07T11:27:05.216Z,99772.72
2023-01-07T11:29:38.487Z,99760.47
2023-01-07T11:32:07.824Z,99769.91
2023-01-07T11:34:38.820Z,99768.31
2023-01-07T11:37:06.612Z,99762.88
2023-01-07T11:39:35.994Z,99753.41
2023-01-07T11:42:35.476Z,99751.03
2023-01-07T11:45:14.779Z,99741.56
2023-01-07T11:47:49.339Z,99723.84
2023-01-07T11:50:25.870Z,99735.25
2023-01-07T11:52:58.830Z,99732.13
2023-01-07T11:55:26.558Z,99729.31
2023-01-07T11:58:27.757Z,99727.72
2023-01-07T12:00:44.080Z,99716.31
2023-01-07T12:03:13.367Z,99705.38
2023-01-07T12:05:45.029Z,99702.63
2023-01-07T12:08:21.824Z,99705.72
2023-01-07T12:10:56.245Z,99688.81
2023-01-07T12:13:28.177Z,99687.63
2023-01-07T12:15:59.129Z,99682.94
2023-01-07T12:18:54.284Z,99683.69
2023-01-07T12:21:36.132Z,99682.13
2023-01-07T12:24:38.814Z,99673.06
2023-01-07T12:27:19.016Z,99667.97
2023-01-07T12:29:58.741Z,99664.78
2023-01-07T12:32:41.158Z,99664.00
2023-01-07T12:35:15.903Z,99656.50
2023-01-07T12:37:50.098Z,99650.66
2023-01-07T12:40:28.915Z,99648.25
2023-01-07T12:43:03.502Z,99650.63
2023-01-07T12:45:37.612Z,99643.13
2023-01-07T12:48:13.455Z,99544.34
2023-01-07T12:50:44.799Z,99630.16
2023-01-07T12:53:17.821Z,99627.00
2023-01-07T12:55:49.377Z,99615.94
2023-01-07T12:58:22.127Z,99616.31
2023-01-07T13:00:58.258Z,99609.59
2023-01-07T13:03:40.150Z,99617.53
2023-01-07T13:06:15.288Z,99593.44
2023-01-07T13:08:47.110Z,99571.38
2023-01-07T13:11:41.081Z,99592.66
2023-01-07T13:14:18.112Z,99600.91
2023-01-07T13:16:47.171Z,99592.63
2023-01-07T13:19:14.861Z,99594.94
2023-01-07T13:21:46.356Z,99585.84
2023-01-07T13:24:54.630Z,99595.28
2023-01-07T13:27:26.875Z,99586.56
2023-01-07T13:30:04.668Z,99584.00
2023-01-07T13:32:51.816Z,99577.19
2023-01-07T13:35:59.316Z,99584.25
2023-01-07T13:38:40.171Z,99581.97
2023-01-07T13:41:24.486Z,99567.69
2023-01-07T13:44:10.953Z,99578.72
2023-01-07T13:46:43.086Z,99572.09
2023-01-07T13:49:26.314Z,99579.25
2023-01-07T13:51:54.658Z,99541.19
2023-01-07T13:54:54.536Z,99576.63
2023-01-07T13:57:43.238Z,99578.16
2023-01-07T14:00:40.483Z,99575.38
2023-01-07T14:03:46.694Z,99580.84
2023-01-07T14:06:39.839Z,99569.44
2023-01-07T14:09:25.627Z,99569.00
2023-01-07T14:12:35.348Z,99567.44
2023-01-07T14:15:27.533Z,99549.19
2023-01-07T14:18:28.971Z,99552.88
2023-01-07T14:21:07.536Z,99557.97
2023-01-07T14:23:43.933Z,99547.38
2023-01-07T14:26:23.379Z,99555.31
2023-01-07T14:29:10.208Z,99545.88
2023-01-07T14:31:38.197Z,99547.84
2023-01-07T14:34:10.070Z,99546.66
2023-01-07T14:37:11.482Z,99554.16
2023-01-07T14:39:42.940Z,99550.59
2023-01-07T14:42:47.931Z,99542.78
2023-01-07T14:45:54.452Z,99537.66
2023-01-07T14:48:36.263Z,99537.25
2023-01-07T14:51:34.030Z,99537.63
2023-01-07T14:54:20.440Z,99539.22
2023-01-07T14:56:59.108Z,99528.56
2023-01-07T14:59:55.283Z,99529.75
2023-01-07T15:02:46.771Z,99516.41
2023-01-07T15:05:35.338Z,99521.91
2023-01-07T15:08:25.512Z,99513.63
2023-01-07T15:11:12.643Z,99517.19
2023-01-07T15:14:02.440Z,99515.22
2023-01-07T15:16:34.776Z,99512.09
2023-01-07T15:19:02.659Z,99509.72
2023-01-07T15:21:38.407Z,99506.59
2023-01-07T15:24:15.502Z,99502.66
2023-01-07T15:26:49.016Z,99503.81
2023-01-07T15:29:27.075Z,99498.28
2023-01-07T15:32:04.456Z,99497.09
2023-01-07T15:34:33.657Z,99490.69
2023-01-07T15:37:05.217Z,99496.47
2023-01-07T15:39:34.985Z,99506.97
2023-01-07T15:42:03.474Z,99504.94
2023-01-07T15:44:40.845Z,99471.22
2023-01-07T15:47:37.478Z,99499.53
2023-01-07T15:50:30.033Z,99494.59
2023-01-07T15:53:00.729Z,99486.56
2023-01-07T15:55:31.615Z,99485.31
2023-01-07T15:58:04.078Z,99491.25
2023-01-07T16:00:34.703Z,99495.59
2023-01-07T16:03:03.415Z,99493.13
2023-01-07T16:05:31.536Z,99493.00
2023-01-07T16:08:01.017Z,99484.69
2023-01-07T16:10:31.877Z,99461.19
2023-01-07T16:13:01.913Z,99495.75
2023-01-07T16:15:32.707Z,99484.81
2023-01-07T16:18:04.006Z,99486.59
2023-01-07T16:20:34.623Z,99490.91
2023-01-07T16:23:20.839Z,99490.50
2023-01-07T16:25:52.245Z,99484.19
2023-01-07T16:28:23.545Z,99479.53
2023-01-07T16:30:52.431Z,99468.28
2023-01-07T16:33:24.086Z,99464.31
2023-01-07T16:35:53.635Z,99463.84
2023-01-07T16:38:21.970Z,99467.69
2023-01-07T16:40:51.785Z,99464.88
2023-01-07T16:43:44.046Z,99472.56
2023-01-07T16:46:34.646Z,99460.38
2023-01-07T16:49:26.880Z,99450.81
2023-01-07T16:52:04.819Z,99449.00
2023-01-07T16:54:36.949Z,99446.88
2023-01-07T16:57:07.154Z,99448.44
2023-01-07T16:59:36.885Z,99443.72
2023-01-07T17:02:13.867Z,99434.72
2023-01-07T17:04:42.996Z,99436.34
2023-01-07T17:07:20.379Z,99430.19
2023-01-07T17:09:48.316Z,99420.13
2023-01-07T17:12:28.181Z,99420.91
2023-01-07T17:14:55.832Z,99427.44
2023-01-07T17:17:30.901Z,99419.66
2023-01-07T17:20:15.220Z,99422.19
2023-01-07T17:22:43.652Z,99418.66
2023-01-07T17:25:13.122Z,99424.06
2023-01-07T17:27:45.359Z,99420.63
2023-01-07T17:30:17.971Z,99416.56
2023-01-07T17:32:46.632Z,99413.38
2023-01-07T17:35:20.280Z,99408.50
2023-01-07T17:37:48.248Z,99399.25
2023-01-07T17:40:16.699Z,99404.50
2023-01-07T17:43:03.875Z,99402.97
2023-01-07T17:45:31.648Z,99404.09
2023-01-07T17:48:01.250Z,99406.97
2023-01-07T17:50:38.126Z,99405.56
2023-01-07T17:53:06.597Z,99412.16
2023-01-07T17:55:36.489Z,99414.66
2023-01-07T17:58:04.211Z,99408.28
2023-01-07T18:00:33.043Z,99409.22
2023-01-07T18:03:00.721Z,99406.31
2023-01-07T18:05:29.703Z,99401.19
2023-01-07T18:07:57.455Z,99401.88
2023-01-07T18:10:49.579Z,99398.34
2023-01-07T18:13:16.275Z,99398.13
2023-01-07T18:15:43.970Z,99392.03
2023-01-07T18:18:11.606Z,99393.25
2023-01-07T18:20:40.607Z,99408.84
2023-01-07T18:23:09.855Z,99395.88
2023-01-07T18:25:37.551Z,99397.75
2023-01-07T18:28:05.332Z,99388.19
2023-01-07T18:30:36.444Z,99391.63
2023-01-07T18:33:04.382Z,99408.50
2023-01-07T18:35:32.077Z,99399.47
2023-01-07T18:38:01.410Z,99396.16
2023-01-07T18:40:29.368Z,99393.16
2023-01-07T18:42:57.563Z,99293.53
2023-01-07T18:45:25.216Z,99382.13
2023-01-07T18:47:52.916Z,99384.47
2023-01-07T18:50:20.561Z,99386.63
2023-01-07T18:52:48.523Z,99381.94
2023-01-07T18:55:19.267Z,99383.31
2023-01-07T18:57:47.286Z,99383.34
2023-01-07T19:00:15.828Z,99380.66
2023-01-07T19:02:43.561Z,99378.41
2023-01-07T19:05:11.538Z,99367.81
2023-01-07T19:07:39.183Z,99361.81
2023-01-07T19:10:07.774Z,99361.41
2023-01-07T19:12:36.876Z,99367.28
2023-01-07T19:15:04.986Z,99370.63
2023-01-07T19:17:32.663Z,99381.31
2023-01-07T19:20:00.483Z,99359.81
2023-01-07T19:22:28.107Z,99362.94
2023-01-07T19:24:56.718Z,99365.66
2023-01-07T19:27:24.799Z,99377.88
2023-01-07T19:29:53.831Z,99363.41
2023-01-07T19:32:21.694Z,99381.94
2023-01-07T19:34:52.267Z,99377.22
2023-01-07T19:37:21.872Z,99372.91
2023-01-07T19:39:49.526Z,99377.19
2023-01-07T19:42:17.200Z,99365.41
2023-01-07T19:44:44.819Z,99355.63
2023-01-07T19:47:13.794Z,99345.75
2023-01-07T19:49:41.793Z,99348.13
2023-01-07T19:52:09.419Z,99353.22
2023-01-07T19:54:37.019Z,99354.00
2023-01-07T19:57:04.824Z,99341.75
2023-01-07T19:59:33.788Z,99348.03
2023-01-07T20:02:01.911Z,99346.88
2023-01-07T20:04:31.323Z,99348.06
2023-01-07T20:06:59.054Z,99342.91
2023-01-07T20:09:26.720Z,99344.13
2023-01-07T20:11:54.343Z,99349.97
2023-01-07T20:14:22.469Z,99344.41
2023-01-07T20:16:50.232Z,99345.63
2023-01-07T20:19:17.991Z,99342.03
2023-01-07T20:21:46.959Z,99340.16
2023-01-07T20:24:14.770Z,99335.75
2023-01-07T20:26:42.425Z,99335.78
2023-01-07T20:29:10.198Z,99342.53
2023-01-07T20:31:37.957Z,99336.97
2023-01-07T20:34:05.790Z,99340.50
2023-01-07T20:36:33.752Z,99347.59
2023-01-07T20:39:05.760Z,99347.56
2023-01-07T20:41:35.453Z,99354.28
2023-01-07T20:44:04.635Z,99345.63
2023-01-07T20:46:34.672Z,99362.19
2023-01-07T20:49:02.995Z,99350.00
2023-01-07T20:51:30.973Z,99331.56
2023-01-07T20:53:58.768Z,99345.31
2023-01-07T20:56:31.849Z,99338.59
2023-01-07T20:59:00.292Z,99342.56
2023-01-07T21:01:28.468Z,99351.97
2023-01-07T21:03:56.234Z,99354.78
2023-01-07T21:06:24.341Z,99337.78
2023-01-07T21:08:52.065Z,99332.34
2023-01-07T21:11:21.585Z,99331.94
2023-01-07T21:13:51.712Z,99325.63
2023-01-07T21:16:19.796Z,99330.34
2023-01-07T21:18:47.935Z,99330.72
2023-01-07T21:21:17.777Z,99326.00
2023-01-07T21:23:46.720Z,99328.38
2023-01-07T21:26:15.156Z,99328.81
2023-01-07T21:28:44.329Z,99328.78
2023-01-07T21:31:16.454Z,99329.97
2023-01-07T21:33:44.793Z,99326.34
2023-01-07T21:36:15.131Z,99332.50
2023-01-07T21:38:43.208Z,99329.81
2023-01-07T21:41:13.045Z,99333.81
2023-01-07T21:43:41.367Z,99336.19
2023-01-07T21:46:09.577Z,99331.91
2023-01-07T21:48:40.821Z,99325.63
2023-01-07T21:51:11.909Z,99320.50
2023-01-07T21:53:39.678Z,99308.34
2023-01-07T21:56:08.648Z,99331.97
2023-01-07T21:58:36.696Z,99275.41
2023-01-07T22:01:05.869Z,99324.88
2023-01-07T22:03:33.918Z,99330.38
2023-01-07T22:06:05.006Z,99287.94
2023-01-07T22:08:33.145Z,99319.72
2023-01-07T22:11:00.794Z,99328.75
2023-01-07T22:13:28.489Z,99323.28
2023-01-07T22:15:56.845Z,99324.88
2023-01-07T22:18:24.534Z,99321.69
2023-01-07T22:20:56.124Z,99328.41
2023-01-07T22:23:25.549Z,99335.06
2023-01-07T22:25:53.256Z,99336.31
2023-01-07T22:28:24.002Z,99332.75
2023-01-07T22:30:55.220Z,99329.19
2023-01-07T22:33:23.467Z,99344.19
2023-01-07T22:35:51.559Z,99342.22
2023-01-07T22:38:22.605Z,99336.75
2023-01-07T22:40:52.014Z,99345.38
2023-01-07T22:43:23.648Z,99334.00
2023-01-07T22:45:55.891Z,99332.81
2023-01-07T22:48:27.221Z,99312.78
2023-01-07T22:50:58.750Z,99324.19
2023-01-07T22:53:26.472Z,99319.47
2023-01-07T22:55:55.468Z,99328.09
2023-01-07T22:58:23.208Z,99323.00
2023-01-07T23:01:13.679Z,99317.91
2023-01-07T23:03:42.397Z,99310.44
2023-01-07T23:06:11.383Z,99296.69
2023-01-07T23:08:39.001Z,99311.63
2023-01-07T23:11:08.675Z,99308.09
2023-01-07T23:13:36.519Z,99297.47
2023-01-07T23:16:06.261Z,99302.19
2023-01-07T23:18:34.895Z,99301.03
2023-01-07T23:21:04.888Z,99293.53
2023-01-07T23:23:32.511Z,99289.63
2023-01-07T23:26:00.188Z,99280.94
2023-01-07T23:28:29.306Z,99274.66
2023-01-07T23:31:01.446Z,99279.41
2023-01-07T23:33:29.116Z,99285.69
2023-01-07T23:36:02.423Z,99270.38
2023-01-07T23:38:30.152Z,99272.72
2023-01-07T23:41:00.987Z,99272.72
2023-01-07T23:43:30.115Z,99267.63
2023-01-07T23:45:58.274Z,99263.69
2023-01-07T23:48:26.550Z,99257.41
2023-01-07T23:50:54.558Z,99241.72
2023-01-07T23:53:22.185Z,99248.78
2023-01-07T23:55:53.441Z,99230.72
2023-01-07T23:58:21.737Z,99202.81
